Fort Liard, Canada
Current Conditions -  °F | °C
As of 8:00 PM on Thursday 18 Dec 2014 (Local Time) from CYYE Reporting Station
Few Clouds Few Clouds  
Wind Chill: -6°   Ceiling: Unl
Heat Index: -6°   Visibility: 15mi
Dew Point: -9°   Wind: 0mph
Humidity: 84%   Direction: NA
Pressure: 29.76"   Gusts: NA
Location:  60.23°N, 123.48°W
Report Text: CYYE 190300Z 00000KT 15SM FEW090 M21/M23 A2976 RMK AC1 SLP120
Loading
Personal Weather Stations






























Interactive Weather Map New forecast layout! Learn more

10-Day Weather Forecast

Advertisements
Track Severe Weather on mobile